sensor_id;sensor_type;location;lat;lon;timestamp;pressure;altitude;pressure_sealevel;temperature;humidity
6218;BME280;3142;48.206;11.550;2023-02-15T00:00:37;97117.41;;;2.08;82.01
6218;BME280;3142;48.206;11.550;2023-02-15T00:03:04;97118.53;;;1.93;81.90
6218;BME280;3142;48.206;11.550;2023-02-15T00:05:30;97122.13;;;1.90;82.07
6218;BME280;3142;48.206;11.550;2023-02-15T00:07:56;97120.25;;;1.81;82.72
6218;BME280;3142;48.206;11.550;2023-02-15T00:10:24;97119.25;;;1.71;83.12
6218;BME280;3142;48.206;11.550;2023-02-15T00:12:51;97127.81;;;1.71;82.93
6218;BME280;3142;48.206;11.550;2023-02-15T00:15:18;97119.53;;;1.79;82.91
6218;BME280;3142;48.206;11.550;2023-02-15T00:17:44;97121.66;;;1.85;82.77
6218;BME280;3142;48.206;11.550;2023-02-15T00:20:11;97125.34;;;1.94;82.80
6218;BME280;3142;48.206;11.550;2023-02-15T00:22:37;97115.56;;;1.86;82.24
6218;BME280;3142;48.206;11.550;2023-02-15T00:25:04;97105.31;;;1.73;82.27
6218;BME280;3142;48.206;11.550;2023-02-15T00:27:32;97116.94;;;1.55;82.38
6218;BME280;3142;48.206;11.550;2023-02-15T00:29:59;97110.03;;;1.56;82.90
6218;BME280;3142;48.206;11.550;2023-02-15T00:32:25;97109.69;;;1.60;82.96
6218;BME280;3142;48.206;11.550;2023-02-15T00:34:51;97099.78;;;1.67;82.62
6218;BME280;3142;48.206;11.550;2023-02-15T00:37:18;97113.69;;;1.64;82.69
6218;BME280;3142;48.206;11.550;2023-02-15T00:39:44;97107.22;;;1.59;83.09
6218;BME280;3142;48.206;11.550;2023-02-15T00:42:11;97112.19;;;1.49;82.85
6218;BME280;3142;48.206;11.550;2023-02-15T00:44:38;97109.63;;;1.49;83.30
6218;BME280;3142;48.206;11.550;2023-02-15T00:47:05;97112.09;;;1.51;83.66
6218;BME280;3142;48.206;11.550;2023-02-15T00:49:31;97112.81;;;1.53;83.09
6218;BME280;3142;48.206;11.550;2023-02-15T00:51:57;97112.97;;;1.38;83.90
6218;BME280;3142;48.206;11.550;2023-02-15T00:54:24;97102.59;;;1.27;84.28
6218;BME280;3142;48.206;11.550;2023-02-15T00:56:50;97092.31;;;1.14;84.23
6218;BME280;3142;48.206;11.550;2023-02-15T00:59:17;97091.19;;;1.06;84.28
6218;BME280;3142;48.206;11.550;2023-02-15T01:01:44;97099.88;;;0.92;84.98
6218;BME280;3142;48.206;11.550;2023-02-15T01:04:11;97092.13;;;1.05;85.58
6218;BME280;3142;48.206;11.550;2023-02-15T01:06:37;97092.72;;;1.08;84.45
6218;BME280;3142;48.206;11.550;2023-02-15T01:09:04;97089.66;;;0.91;84.61
6218;BME280;3142;48.206;11.550;2023-02-15T01:11:30;97081.34;;;0.87;85.14
6218;BME280;3142;48.206;11.550;2023-02-15T01:13:58;97087.59;;;0.96;84.74
6218;BME280;3142;48.206;11.550;2023-02-15T01:16:26;97073.09;;;0.82;84.82
6218;BME280;3142;48.206;11.550;2023-02-15T01:18:54;97077.97;;;0.74;85.41
6218;BME280;3142;48.206;11.550;2023-02-15T01:21:23;97071.06;;;0.62;85.30
6218;BME280;3142;48.206;11.550;2023-02-15T01:23:50;97062.09;;;0.67;85.74
6218;BME280;3142;48.206;11.550;2023-02-15T01:26:17;97068.66;;;0.97;85.89
6218;BME280;3142;48.206;11.550;2023-02-15T01:28:44;97059.53;;;1.16;84.47
6218;BME280;3142;48.206;11.550;2023-02-15T01:31:13;97069.31;;;1.24;84.72
6218;BME280;3142;48.206;11.550;2023-02-15T01:33:40;97067.41;;;1.39;84.50
6218;BME280;3142;48.206;11.550;2023-02-15T01:36:09;97062.13;;;1.40;83.32
6218;BME280;3142;48.206;11.550;2023-02-15T01:38:35;97067.81;;;1.33;83.50
6218;BME280;3142;48.206;11.550;2023-02-15T01:41:02;97055.34;;;1.03;83.36
6218;BME280;3142;48.206;11.550;2023-02-15T01:43:50;97052.06;;;0.88;84.42
6218;BME280;3142;48.206;11.550;2023-02-15T01:46:19;97052.09;;;0.75;83.68
6218;BME280;3142;48.206;11.550;2023-02-15T01:48:48;97053.66;;;0.52;84.77
6218;BME280;3142;48.206;11.550;2023-02-15T01:51:21;97047.41;;;0.44;85.43
6218;BME280;3142;48.206;11.550;2023-02-15T01:53:52;97048.41;;;0.54;84.83
6218;BME280;3142;48.206;11.550;2023-02-15T01:56:21;97045.22;;;0.63;85.37
6218;BME280;3142;48.206;11.550;2023-02-15T01:58:51;97043.34;;;0.65;84.90
6218;BME280;3142;48.206;11.550;2023-02-15T02:01:19;97040.72;;;0.91;85.80
6218;BME280;3142;48.206;11.550;2023-02-15T02:03:53;97041.31;;;0.94;84.66
6218;BME280;3142;48.206;11.550;2023-02-15T02:06:25;97045.47;;;0.97;84.83
6218;BME280;3142;48.206;11.550;2023-02-15T02:08:52;97042.94;;;1.08;84.62
6218;BME280;3142;48.206;11.550;2023-02-15T02:11:21;97041.44;;;0.93;84.21
6218;BME280;3142;48.206;11.550;2023-02-15T02:13:48;97033.47;;;0.72;84.40
6218;BME280;3142;48.206;11.550;2023-02-15T02:16:20;97030.78;;;0.61;84.86
6218;BME280;3142;48.206;11.550;2023-02-15T02:18:58;97032.75;;;0.70;84.83
6218;BME280;3142;48.206;11.550;2023-02-15T02:22:00;97034.53;;;0.93;84.29
6218;BME280;3142;48.206;11.550;2023-02-15T02:24:59;97030.00;;;0.97;84.51
6218;BME280;3142;48.206;11.550;2023-02-15T02:27:34;97032.84;;;1.05;84.33
6218;BME280;3142;48.206;11.550;2023-02-15T02:30:25;97024.66;;;1.24;83.66
6218;BME280;3142;48.206;11.550;2023-02-15T02:33:08;97031.41;;;1.37;83.16
6218;BME280;3142;48.206;11.550;2023-02-15T02:35:44;97023.88;;;1.34;83.13
6218;BME280;3142;48.206;11.550;2023-02-15T02:38:21;97026.34;;;1.36;82.84
6218;BME280;3142;48.206;11.550;2023-02-15T02:40:58;97023.09;;;1.21;82.72
6218;BME280;3142;48.206;11.550;2023-02-15T02:43:32;97023.44;;;1.16;83.18
6218;BME280;3142;48.206;11.550;2023-02-15T02:46:02;97025.31;;;1.14;83.08
6218;BME280;3142;48.206;11.550;2023-02-15T02:48:33;97023.81;;;1.23;83.24
6218;BME280;3142;48.206;11.550;2023-02-15T02:51:00;97020.06;;;1.40;81.89
6218;BME280;3142;48.206;11.550;2023-02-15T02:53:30;97022.75;;;1.38;82.53
6218;BME280;3142;48.206;11.550;2023-02-15T02:56:01;97024.44;;;1.27;81.94
6218;BME280;3142;48.206;11.550;2023-02-15T02:58:31;97020.22;;;1.26;82.29
6218;BME280;3142;48.206;11.550;2023-02-15T03:01:02;97020.41;;;1.23;82.92
6218;BME280;3142;48.206;11.550;2023-02-15T03:03:36;97020.47;;;1.34;82.59
6218;BME280;3142;48.206;11.550;2023-02-15T03:06:07;97013.97;;;1.41;82.61
6218;BME280;3142;48.206;11.550;2023-02-15T03:08:41;97017.72;;;1.48;81.78
6218;BME280;3142;48.206;11.550;2023-02-15T03:11:09;97016.59;;;1.52;82.33
6218;BME280;3142;48.206;11.550;2023-02-15T03:13:37;97016.84;;;1.60;81.83
6218;BME280;3142;48.206;11.550;2023-02-15T03:16:05;97016.72;;;1.62;81.83
6218;BME280;3142;48.206;11.550;2023-02-15T03:18:55;97011.81;;;1.59;81.42
6218;BME280;3142;48.206;11.550;2023-02-15T03:21:27;97015.69;;;1.64;81.45
6218;BME280;3142;48.206;11.550;2023-02-15T03:24:00;97009.50;;;1.78;81.45
6218;BME280;3142;48.206;11.550;2023-02-15T03:26:29;97008.97;;;1.86;80.50
6218;BME280;3142;48.206;11.550;2023-02-15T03:28:58;97010.00;;;1.83;80.44
6218;BME280;3142;48.206;11.550;2023-02-15T03:31:28;97018.41;;;1.74;80.94
6218;BME280;3142;48.206;11.550;2023-02-15T03:34:00;97015.84;;;1.74;80.53
6218;BME280;3142;48.206;11.550;2023-02-15T03:36:32;97011.84;;;1.70;80.37
6218;BME280;3142;48.206;11.550;2023-02-15T03:39:10;97015.59;;;1.77;80.47
6218;BME280;3142;48.206;11.550;2023-02-15T03:41:40;97011.28;;;1.77;79.75
6218;BME280;3142;48.206;11.550;2023-02-15T03:44:11;97008.59;;;1.79;79.71
6218;BME280;3142;48.206;11.550;2023-02-15T03:46:43;97011.72;;;1.71;79.01
6218;BME280;3142;48.206;11.550;2023-02-15T03:49:18;97023.47;;;1.75;79.96
6218;BME280;3142;48.206;11.550;2023-02-15T03:51:48;97025.94;;;1.77;78.91
6218;BME280;3142;48.206;11.550;2023-02-15T03:54:18;97020.94;;;1.63;79.41
6218;BME280;3142;48.206;11.550;2023-02-15T03:57:01;97018.41;;;1.74;79.70
6218;BME280;3142;48.206;11.550;2023-02-15T03:59:41;97011.88;;;1.81;79.09
6218;BME280;3142;48.206;11.550;2023-02-15T04:02:28;97010.84;;;1.84;78.86
6218;BME280;3142;48.206;11.550;2023-02-15T04:05:00;97012.59;;;1.83;78.59
6218;BME280;3142;48.206;11.550;2023-02-15T04:07:26;97016.19;;;1.69;79.67
6218;BME280;3142;48.206;11.550;2023-02-15T04:09:53;97019.34;;;1.73;79.79
6218;BME280;3142;48.206;11.550;2023-02-15T04:12:36;97015.06;;;1.85;79.35
6218;BME280;3142;48.206;11.550;2023-02-15T04:15:03;97014.00;;;1.87;79.12
6218;BME280;3142;48.206;11.550;2023-02-15T04:17:48;97007.66;;;1.91;79.48
6218;BME280;3142;48.206;11.550;2023-02-15T04:20:16;97009.13;;;1.95;79.36
6218;BME280;3142;48.206;11.550;2023-02-15T04:23:00;97011.69;;;1.95;78.69
6218;BME280;3142;48.206;11.550;2023-02-15T04:25:44;97012.94;;;1.90;78.36
6218;BME280;3142;48.206;11.550;2023-02-15T04:28:10;97017.91;;;1.93;78.49
6218;BME280;3142;48.206;11.550;2023-02-15T04:30:37;97021.19;;;1.95;78.30
6218;BME280;3142;48.206;11.550;2023-02-15T04:33:03;97020.69;;;1.90;78.24
6218;BME280;3142;48.206;11.550;2023-02-15T04:35:31;97021.63;;;1.89;78.36
6218;BME280;3142;48.206;11.550;2023-02-15T04:37:58;97031.31;;;1.74;78.28
6218;BME280;3142;48.206;11.550;2023-02-15T04:40:25;97023.47;;;1.75;79.61
6218;BME280;3142;48.206;11.550;2023-02-15T04:42:51;97020.84;;;1.64;78.98
6218;BME280;3142;48.206;11.550;2023-02-15T04:45:17;97018.19;;;1.42;79.05
6218;BME280;3142;48.206;11.550;2023-02-15T04:47:44;97020.94;;;1.28;80.05
6218;BME280;3142;48.206;11.550;2023-02-15T04:50:11;97017.59;;;1.14;80.16
6218;BME280;3142;48.206;11.550;2023-02-15T04:52:39;97011.50;;;1.15;80.23
6218;BME280;3142;48.206;11.550;2023-02-15T04:55:06;97015.03;;;1.02;80.79
6218;BME280;3142;48.206;11.550;2023-02-15T04:57:33;97016.19;;;0.98;81.32
6218;BME280;3142;48.206;11.550;2023-02-15T04:59:59;97014.25;;;0.88;81.66
6218;BME280;3142;48.206;11.550;2023-02-15T05:02:26;97021.72;;;1.04;81.78
6218;BME280;3142;48.206;11.550;2023-02-15T05:04:52;97013.31;;;1.26;81.37
6218;BME280;3142;48.206;11.550;2023-02-15T05:07:18;97013.41;;;1.48;81.12
6218;BME280;3142;48.206;11.550;2023-02-15T05:09:47;97019.31;;;1.62;80.28
6218;BME280;3142;48.206;11.550;2023-02-15T05:12:14;97015.59;;;1.66;79.98
6218;BME280;3142;48.206;11.550;2023-02-15T05:14:40;97021.69;;;1.65;79.84
6218;BME280;3142;48.206;11.550;2023-02-15T05:17:06;97016.38;;;1.55;80.37
6218;BME280;3142;48.206;11.550;2023-02-15T05:19:33;97013.22;;;1.63;80.21
6218;BME280;3142;48.206;11.550;2023-02-15T05:21:59;97015.91;;;1.61;79.88
6218;BME280;3142;48.206;11.550;2023-02-15T05:24:26;97023.53;;;1.63;79.24
6218;BME280;3142;48.206;11.550;2023-02-15T05:27:11;97014.72;;;1.54;80.21
6218;BME280;3142;48.206;11.550;2023-02-15T05:29:55;97018.78;;;1.45;80.58
6218;BME280;3142;48.206;11.550;2023-02-15T05:32:22;97026.19;;;1.50;80.27
6218;BME280;3142;48.206;11.550;2023-02-15T05:34:48;97027.72;;;1.53;79.75
6218;BME280;3142;48.206;11.550;2023-02-15T05:37:14;97031.34;;;1.50;79.72
6218;BME280;3142;48.206;11.550;2023-02-15T05:39:41;97026.19;;;1.50;80.31
6218;BME280;3142;48.206;11.550;2023-02-15T05:42:07;97033.13;;;1.61;80.43
6218;BME280;3142;48.206;11.550;2023-02-15T05:44:35;97033.72;;;1.64;80.00
6218;BME280;3142;48.206;11.550;2023-02-15T05:47:01;97025.91;;;1.66;80.76
6218;BME280;3142;48.206;11.550;2023-02-15T05:49:28;97025.56;;;1.70;80.74
6218;BME280;3142;48.206;11.550;2023-02-15T05:51:55;97025.09;;;1.76;80.13
6218;BME280;3142;48.206;11.550;2023-02-15T05:54:22;97025.44;;;1.72;81.18
6218;BME280;3142;48.206;11.550;2023-02-15T05:56:48;97016.41;;;1.66;80.31
6218;BME280;3142;48.206;11.550;2023-02-15T05:59:15;97018.50;;;1.61;80.70
6218;BME280;3142;48.206;11.550;2023-02-15T06:01:42;97024.97;;;1.67;80.52
6218;BME280;3142;48.206;11.550;2023-02-15T06:04:09;97024.84;;;1.68;80.70
6218;BME280;3142;48.206;11.550;2023-02-15T06:06:35;97028.69;;;1.63;80.25
6218;BME280;3142;48.206;11.550;2023-02-15T06:09:02;97029.56;;;1.51;79.89
6218;BME280;3142;48.206;11.550;2023-02-15T06:11:28;97032.25;;;1.38;80.66
6218;BME280;3142;48.206;11.550;2023-02-15T06:13:55;97033.81;;;1.28;81.47
6218;BME280;3142;48.206;11.550;2023-02-15T06:16:21;97033.75;;;1.16;81.27
6218;BME280;3142;48.206;11.550;2023-02-15T06:18:49;97031.69;;;1.09;81.60
6218;BME280;3142;48.206;11.550;2023-02-15T06:21:16;97033.25;;;1.11;83.00
6218;BME280;3142;48.206;11.550;2023-02-15T06:23:42;97028.78;;;1.26;82.34
6218;BME280;3142;48.206;11.550;2023-02-15T06:26:08;97033.53;;;1.43;82.58
6218;BME280;3142;48.206;11.550;2023-02-15T06:28:35;97039.22;;;1.60;82.37
6218;BME280;3142;48.206;11.550;2023-02-15T06:31:02;97047.09;;;1.58;82.14
6218;BME280;3142;48.206;11.550;2023-02-15T06:33:29;97036.53;;;1.61;82.25
6218;BME280;3142;48.206;11.550;2023-02-15T06:36:00;97043.16;;;1.65;82.31
6218;BME280;3142;48.206;11.550;2023-02-15T06:38:26;97044.28;;;1.61;82.76
6218;BME280;3142;48.206;11.550;2023-02-15T06:40:53;97053.06;;;1.59;82.49
6218;BME280;3142;48.206;11.550;2023-02-15T06:43:19;97051.66;;;1.55;82.86
6218;BME280;3142;48.206;11.550;2023-02-15T06:45:46;97048.25;;;1.54;82.97
6218;BME280;3142;48.206;11.550;2023-02-15T06:48:12;97047.78;;;1.60;83.01
6218;BME280;3142;48.206;11.550;2023-02-15T06:50:39;97052.53;;;1.77;82.92
6218;BME280;3142;48.206;11.550;2023-02-15T06:53:07;97054.31;;;1.77;82.25
6218;BME280;3142;48.206;11.550;2023-02-15T06:55:33;97048.59;;;1.85;82.78
6218;BME280;3142;48.206;11.550;2023-02-15T06:57:59;97056.00;;;1.89;81.86
6218;BME280;3142;48.206;11.550;2023-02-15T07:00:26;97049.78;;;1.92;81.47
6218;BME280;3142;48.206;11.550;2023-02-15T07:02:53;97050.94;;;1.88;81.70
6218;BME280;3142;48.206;11.550;2023-02-15T07:05:21;97054.84;;;1.93;81.29
6218;BME280;3142;48.206;11.550;2023-02-15T07:07:47;97047.59;;;1.98;81.42
6218;BME280;3142;48.206;11.550;2023-02-15T07:10:16;97053.09;;;1.94;82.15
6218;BME280;3142;48.206;11.550;2023-02-15T07:12:42;97054.13;;;1.91;81.72
6218;BME280;3142;48.206;11.550;2023-02-15T07:15:08;97052.47;;;1.90;81.58
6218;BME280;3142;48.206;11.550;2023-02-15T07:17:35;97042.53;;;1.97;81.85
6218;BME280;3142;48.206;11.550;2023-02-15T07:20:03;97046.19;;;1.94;82.13
6218;BME280;3142;48.206;11.550;2023-02-15T07:22:30;97046.66;;;1.99;80.99
6218;BME280;3142;48.206;11.550;2023-02-15T07:24:59;97049.41;;;1.85;81.36
6218;BME280;3142;48.206;11.550;2023-02-15T07:27:26;97048.72;;;1.83;80.99
6218;BME280;3142;48.206;11.550;2023-02-15T07:29:53;97053.06;;;1.83;81.78
6218;BME280;3142;48.206;11.550;2023-02-15T07:32:19;97057.09;;;1.74;81.69
6218;BME280;3142;48.206;11.550;2023-02-15T07:34:46;97048.66;;;1.72;81.45
6218;BME280;3142;48.206;11.550;2023-02-15T07:37:12;97051.19;;;1.61;81.74
6218;BME280;3142;48.206;11.550;2023-02-15T07:39:38;97044.97;;;1.52;82.51
6218;BME280;3142;48.206;11.550;2023-02-15T07:42:05;97044.84;;;1.54;82.44
6218;BME280;3142;48.206;11.550;2023-02-15T07:44:32;97039.47;;;1.57;82.66
6218;BME280;3142;48.206;11.550;2023-02-15T07:46:59;97048.72;;;1.59;83.04
6218;BME280;3142;48.206;11.550;2023-02-15T07:49:25;97050.69;;;1.80;82.36
6218;BME280;3142;48.206;11.550;2023-02-15T07:51:52;97045.91;;;1.86;82.74
6218;BME280;3142;48.206;11.550;2023-02-15T07:54:18;97035.38;;;2.00;82.37
6218;BME280;3142;48.206;11.550;2023-02-15T07:56:45;97035.16;;;2.03;81.91
6218;BME280;3142;48.206;11.550;2023-02-15T07:59:11;97030.81;;;1.93;81.97
6218;BME280;3142;48.206;11.550;2023-02-15T08:01:39;97033.13;;;1.85;82.66
6218;BME280;3142;48.206;11.550;2023-02-15T08:04:07;97030.78;;;1.82;82.68
6218;BME280;3142;48.206;11.550;2023-02-15T08:06:35;97030.88;;;1.80;82.99
6218;BME280;3142;48.206;11.550;2023-02-15T08:09:03;97036.97;;;1.79;83.10
6218;BME280;3142;48.206;11.550;2023-02-15T08:11:32;97030.66;;;1.83;82.83
6218;BME280;3142;48.206;11.550;2023-02-15T08:14:03;97027.13;;;1.84;83.18
6218;BME280;3142;48.206;11.550;2023-02-15T08:16:32;97022.84;;;1.96;82.86
6218;BME280;3142;48.206;11.550;2023-02-15T08:19:03;97024.25;;;2.00;82.33
6218;BME280;3142;48.206;11.550;2023-02-15T08:21:31;97024.25;;;2.00;82.87
6218;BME280;3142;48.206;11.550;2023-02-15T08:23:58;97030.22;;;2.00;82.52
6218;BME280;3142;48.206;11.550;2023-02-15T08:26:25;97023.66;;;1.96;82.07
6218;BME280;3142;48.206;11.550;2023-02-15T08:28:53;97029.25;;;1.90;83.38
6218;BME280;3142;48.206;11.550;2023-02-15T08:31:19;97030.56;;;1.96;82.78
6218;BME280;3142;48.206;11.550;2023-02-15T08:33:48;97022.59;;;1.99;83.30
6218;BME280;3142;48.206;11.550;2023-02-15T08:36:18;97015.94;;;2.07;82.67
6218;BME280;3142;48.206;11.550;2023-02-15T08:38:45;97025.09;;;2.12;83.10
6218;BME280;3142;48.206;11.550;2023-02-15T08:41:13;97018.75;;;2.16;82.57
6218;BME280;3142;48.206;11.550;2023-02-15T08:43:41;97016.31;;;2.25;82.71
6218;BME280;3142;48.206;11.550;2023-02-15T08:46:09;97023.13;;;2.26;83.00
6218;BME280;3142;48.206;11.550;2023-02-15T08:48:36;97030.75;;;2.39;82.23
6218;BME280;3142;48.206;11.550;2023-02-15T08:51:07;97023.03;;;2.39;83.04
6218;BME280;3142;48.206;11.550;2023-02-15T08:53:37;97024.56;;;2.53;82.53
6218;BME280;3142;48.206;11.550;2023-02-15T08:56:04;97029.59;;;2.65;82.12
6218;BME280;3142;48.206;11.550;2023-02-15T08:58:31;97026.56;;;2.60;81.31
6218;BME280;3142;48.206;11.550;2023-02-15T09:00:57;97016.44;;;2.68;81.88
6218;BME280;3142;48.206;11.550;2023-02-15T09:03:24;97019.28;;;2.77;81.59
6218;BME280;3142;48.206;11.550;2023-02-15T09:05:56;97025.34;;;2.87;81.56
6218;BME280;3142;48.206;11.550;2023-02-15T09:08:23;97020.91;;;2.78;81.33
6218;BME280;3142;48.206;11.550;2023-02-15T09:10:51;97025.50;;;2.74;81.96
6218;BME280;3142;48.206;11.550;2023-02-15T09:13:17;97022.19;;;2.83;81.53
6218;BME280;3142;48.206;11.550;2023-02-15T09:15:44;97020.56;;;2.82;82.06
6218;BME280;3142;48.206;11.550;2023-02-15T09:18:10;97024.56;;;2.75;81.76
6218;BME280;3142;48.206;11.550;2023-02-15T09:20:42;97021.63;;;2.80;81.94
6218;BME280;3142;48.206;11.550;2023-02-15T09:23:08;97024.31;;;2.89;81.36
6218;BME280;3142;48.206;11.550;2023-02-15T09:25:35;97015.69;;;3.00;80.73
6218;BME280;3142;48.206;11.550;2023-02-15T09:28:03;97010.66;;;2.98;80.30
6218;BME280;3142;48.206;11.550;2023-02-15T09:30:29;97014.56;;;2.93;80.80
6218;BME280;3142;48.206;11.550;2023-02-15T09:32:55;97006.91;;;2.91;80.66
6218;BME280;3142;48.206;11.550;2023-02-15T09:35:22;97014.91;;;2.88;81.23
6218;BME280;3142;48.206;11.550;2023-02-15T09:37:48;97011.16;;;2.92;80.92
6218;BME280;3142;48.206;11.550;2023-02-15T09:40:16;97007.75;;;2.92;80.99
6218;BME280;3142;48.206;11.550;2023-02-15T09:42:56;97006.31;;;2.99;80.77
6218;BME280;3142;48.206;11.550;2023-02-15T09:45:40;97013.03;;;2.90;81.90
6218;BME280;3142;48.206;11.550;2023-02-15T09:48:38;97013.16;;;2.89;81.50
6218;BME280;3142;48.206;11.550;2023-02-15T09:51:18;97015.38;;;2.82;82.35
6218;BME280;3142;48.206;11.550;2023-02-15T09:54:02;97019.59;;;2.94;82.06
6218;BME280;3142;48.206;11.550;2023-02-15T09:56:38;97020.72;;;3.13;81.95
6218;BME280;3142;48.206;11.550;2023-02-15T09:59:12;97024.00;;;3.15;81.50
6218;BME280;3142;48.206;11.550;2023-02-15T10:01:51;97024.50;;;3.09;81.83
6218;BME280;3142;48.206;11.550;2023-02-15T10:04:36;97016.63;;;3.10;81.99
6218;BME280;3142;48.206;11.550;2023-02-15T10:07:13;97024.00;;;3.15;81.54
6218;BME280;3142;48.206;11.550;2023-02-15T10:09:52;97021.78;;;3.21;81.37
6218;BME280;3142;48.206;11.550;2023-02-15T10:12:32;97017.84;;;3.38;81.28
6218;BME280;3142;48.206;11.550;2023-02-15T10:15:27;97015.47;;;3.46;81.05
6218;BME280;3142;48.206;11.550;2023-02-15T10:18:06;97010.63;;;3.53;81.38
6218;BME280;3142;48.206;11.550;2023-02-15T10:20:51;97014.00;;;3.65;81.54
6218;BME280;3142;48.206;11.550;2023-02-15T10:23:39;97013.25;;;3.74;80.89
6218;BME280;3142;48.206;11.550;2023-02-15T10:26:11;97011.28;;;3.66;81.03
6218;BME280;3142;48.206;11.550;2023-02-15T10:28:43;97011.16;;;3.68;80.49
6218;BME280;3142;48.206;11.550;2023-02-15T10:31:18;97005.81;;;3.80;80.44
6218;BME280;3142;48.206;11.550;2023-02-15T10:33:59;97000.38;;;3.83;80.15
6218;BME280;3142;48.206;11.550;2023-02-15T10:36:43;97003.25;;;4.01;79.80
6218;BME280;3142;48.206;11.550;2023-02-15T10:39:19;96996.22;;;4.13;78.61
6218;BME280;3142;48.206;11.550;2023-02-15T10:41:54;97000.47;;;4.14;78.80
6218;BME280;3142;48.206;11.550;2023-02-15T10:44:33;96991.06;;;4.13;78.56
6218;BME280;3142;48.206;11.550;2023-02-15T10:47:16;96992.34;;;4.28;78.27
6218;BME280;3142;48.206;11.550;2023-02-15T10:50:05;96994.16;;;4.37;78.40
6218;BME280;3142;48.206;11.550;2023-02-15T10:52:42;96987.34;;;4.36;78.79
6218;BME280;3142;48.206;11.550;2023-02-15T10:55:17;96988.22;;;4.46;78.77
6218;BME280;3142;48.206;11.550;2023-02-15T10:57:51;96983.63;;;4.60;78.01
6218;BME280;3142;48.206;11.550;2023-02-15T11:00:27;96990.72;;;4.98;76.89
6218;BME280;3142;48.206;11.550;2023-02-15T11:03:11;96976.84;;;5.38;75.42
6218;BME280;3142;48.206;11.550;2023-02-15T11:05:57;96970.81;;;5.18;75.81
6218;BME280;3142;48.206;11.550;2023-02-15T11:08:29;96967.84;;;5.22;75.74
6218;BME280;3142;48.206;11.550;2023-02-15T11:11:00;96959.66;;;5.65;74.60
6218;BME280;3142;48.206;11.550;2023-02-15T11:13:29;96958.94;;;5.83;74.22
6218;BME280;3142;48.206;11.550;2023-02-15T11:16:02;96948.25;;;5.86;74.58
6218;BME280;3142;48.206;11.550;2023-02-15T11:18:33;96952.09;;;5.72;74.54
6218;BME280;3142;48.206;11.550;2023-02-15T11:21:07;96941.59;;;5.64;74.22
6218;BME280;3142;48.206;11.550;2023-02-15T11:23:41;96941.97;;;6.08;73.23
6218;BME280;3142;48.206;11.550;2023-02-15T11:26:13;96941.38;;;6.61;72.47
6218;BME280;3142;48.206;11.550;2023-02-15T11:28:45;96934.53;;;6.87;70.94
6218;BME280;3142;48.206;11.550;2023-02-15T11:31:17;96925.91;;;6.87;71.36
6218;BME280;3142;48.206;11.550;2023-02-15T11:33:46;96924.22;;;7.49;69.21
6218;BME280;3142;48.206;11.550;2023-02-15T11:36:18;96919.81;;;7.93;68.75
6218;BME280;3142;48.206;11.550;2023-02-15T11:38:49;96905.16;;;7.92;68.03
6218;BME280;3142;48.206;11.550;2023-02-15T11:41:21;96906.66;;;7.68;68.27
6218;BME280;3142;48.206;11.550;2023-02-15T11:43:53;96912.78;;;7.41;68.94
6218;BME280;3142;48.206;11.550;2023-02-15T11:46:21;96901.28;;;7.70;67.57
6218;BME280;3142;48.206;11.550;2023-02-15T11:48:48;96892.84;;;8.28;66.20
6218;BME280;3142;48.206;11.550;2023-02-15T11:51:18;96893.03;;;8.69;65.65
6218;BME280;3142;48.206;11.550;2023-02-15T11:53:45;96891.69;;;9.07;65.78
6218;BME280;3142;48.206;11.550;2023-02-15T11:56:14;96876.38;;;9.36;63.65
6218;BME280;3142;48.206;11.550;2023-02-15T11:58:43;96877.16;;;9.45;63.42
6218;BME280;3142;48.206;11.550;2023-02-15T12:01:14;96874.88;;;9.66;62.78
6218;BME280;3142;48.206;11.550;2023-02-15T12:03:46;96867.66;;;9.85;62.39
6218;BME280;3142;48.206;11.550;2023-02-15T12:06:19;96866.69;;;9.94;61.62
6218;BME280;3142;48.206;11.550;2023-02-15T12:08:52;96868.25;;;10.11;61.28
6218;BME280;3142;48.206;11.550;2023-02-15T12:11:22;96863.84;;;10.12;61.20
6218;BME280;3142;48.206;11.550;2023-02-15T12:13:56;96861.72;;;10.23;61.20
6218;BME280;3142;48.206;11.550;2023-02-15T12:16:23;96857.13;;;10.25;61.86
6218;BME280;3142;48.206;11.550;2023-02-15T12:18:52;96852.09;;;10.16;61.29
6218;BME280;3142;48.206;11.550;2023-02-15T12:21:27;96853.75;;;10.00;61.34
6218;BME280;3142;48.206;11.550;2023-02-15T12:23:56;96854.28;;;9.79;61.39
6218;BME280;3142;48.206;11.550;2023-02-15T12:26:25;96850.22;;;9.77;62.19
6218;BME280;3142;48.206;11.550;2023-02-15T12:28:54;96848.94;;;9.65;61.72
6218;BME280;3142;48.206;11.550;2023-02-15T12:31:26;96842.06;;;9.64;61.71
6218;BME280;3142;48.206;11.550;2023-02-15T12:33:56;96847.94;;;9.74;62.23
6218;BME280;3142;48.206;11.550;2023-02-15T12:36:29;96828.28;;;9.86;62.41
6218;BME280;3142;48.206;11.550;2023-02-15T12:39:05;96833.22;;;9.81;62.05
6218;BME280;3142;48.206;11.550;2023-02-15T12:41:32;96839.75;;;9.77;60.96
6218;BME280;3142;48.206;11.550;2023-02-15T12:44:06;96827.66;;;9.84;61.80
6218;BME280;3142;48.206;11.550;2023-02-15T12:46:34;96837.59;;;9.97;61.37
6218;BME280;3142;48.206;11.550;2023-02-15T12:49:05;96826.50;;;9.87;61.24
6218;BME280;3142;48.206;11.550;2023-02-15T12:51:44;96836.34;;;9.68;60.79
6218;BME280;3142;48.206;11.550;2023-02-15T12:54:35;96831.78;;;9.62;61.15
6218;BME280;3142;48.206;11.550;2023-02-15T12:57:17;96826.09;;;9.50;61.50
6218;BME280;3142;48.206;11.550;2023-02-15T12:59:50;96823.63;;;9.49;61.85
6218;BME280;3142;48.206;11.550;2023-02-15T13:02:22;96824.25;;;9.59;62.03
6218;BME280;3142;48.206;11.550;2023-02-15T13:04:49;96824.94;;;9.53;61.76
6218;BME280;3142;48.206;11.550;2023-02-15T13:07:18;96817.25;;;9.60;61.71
6218;BME280;3142;48.206;11.550;2023-02-15T13:09:45;96805.78;;;9.77;61.37
6218;BME280;3142;48.206;11.550;2023-02-15T13:12:18;96807.06;;;9.89;61.20
6218;BME280;3142;48.206;11.550;2023-02-15T13:14:47;96804.28;;;9.91;61.17
6218;BME280;3142;48.206;11.550;2023-02-15T13:17:17;96801.63;;;9.99;61.55
6218;BME280;3142;48.206;11.550;2023-02-15T13:19:48;96801.84;;;9.89;61.86
6218;BME280;3142;48.206;11.550;2023-02-15T13:22:20;96795.69;;;9.74;62.41
6218;BME280;3142;48.206;11.550;2023-02-15T13:24:50;96791.69;;;9.94;62.77
6218;BME280;3142;48.206;11.550;2023-02-15T13:27:19;96789.34;;;10.07;61.93
6218;BME280;3142;48.206;11.550;2023-02-15T13:29:49;96788.13;;;9.87;62.13
6218;BME280;3142;48.206;11.550;2023-02-15T13:32:26;96784.69;;;9.87;61.78
6218;BME280;3142;48.206;11.550;2023-02-15T13:34:56;96783.34;;;9.99;62.14
6218;BME280;3142;48.206;11.550;2023-02-15T13:40:22;96773.84;;;9.98;61.14
6218;BME280;3142;48.206;11.550;2023-02-15T13:42:54;96774.03;;;9.96;61.64